sensor_id;sensor_type;location;lat;lon;timestamp;temperature;humidity
11569;DHT22;5840;46.894;15.542;2023-12-04T00:00:34;-4.80;99.90
11569;DHT22;5840;46.894;15.542;2023-12-04T00:03:01;-4.80;99.90
11569;DHT22;5840;46.894;15.542;2023-12-04T00:05:29;-4.80;99.90
11569;DHT22;5840;46.894;15.542;2023-12-04T00:07:56;-4.90;99.90
11569;DHT22;5840;46.894;15.542;2023-12-04T00:10:23;-4.90;99.90
11569;DHT22;5840;46.894;15.542;2023-12-04T00:12:50;-4.90;99.90
11569;DHT22;5840;46.894;15.542;2023-12-04T00:15:19;-4.90;99.90
11569;DHT22;5840;46.894;15.542;2023-12-04T00:17:46;-4.90;99.90
11569;DHT22;5840;46.894;15.542;2023-12-04T00:20:13;-4.90;99.90
11569;DHT22;5840;46.894;15.542;2023-12-04T00:22:42;-4.90;99.90
11569;DHT22;5840;46.894;15.542;2023-12-04T00:25:08;-4.90;99.90
11569;DHT22;5840;46.894;15.542;2023-12-04T00:27:35;-4.90;99.90
11569;DHT22;5840;46.894;15.542;2023-12-04T00:30:03;-4.90;99.90
11569;DHT22;5840;46.894;15.542;2023-12-04T00:32:31;-5.00;99.90
11569;DHT22;5840;46.894;15.542;2023-12-04T00:34:58;-5.00;99.90
11569;DHT22;5840;46.894;15.542;2023-12-04T00:37:26;-5.00;99.90
11569;DHT22;5840;46.894;15.542;2023-12-04T00:39:55;-5.00;99.90
11569;DHT22;5840;46.894;15.542;2023-12-04T00:42:22;-5.00;99.90
11569;DHT22;5840;46.894;15.542;2023-12-04T00:44:48;-5.10;99.90
11569;DHT22;5840;46.894;15.542;2023-12-04T00:47:15;-5.10;99.90
11569;DHT22;5840;46.894;15.542;2023-12-04T00:49:42;-5.10;99.90
11569;DHT22;5840;46.894;15.542;2023-12-04T00:52:09;-5.10;99.90
11569;DHT22;5840;46.894;15.542;2023-12-04T00:54:39;-5.10;99.90
11569;DHT22;5840;46.894;15.542;2023-12-04T00:57:08;-5.10;99.90
11569;DHT22;5840;46.894;15.542;2023-12-04T00:59:35;-5.10;99.90
11569;DHT22;5840;46.894;15.542;2023-12-04T01:02:02;-5.20;99.90
11569;DHT22;5840;46.894;15.542;2023-12-04T01:04:30;-5.20;99.90
11569;DHT22;5840;46.894;15.542;2023-12-04T01:06:57;-5.20;99.90
11569;DHT22;5840;46.894;15.542;2023-12-04T01:09:24;-5.30;99.90
11569;DHT22;5840;46.894;15.542;2023-12-04T01:11:52;-5.30;99.90
11569;DHT22;5840;46.894;15.542;2023-12-04T01:14:21;-5.30;99.90
11569;DHT22;5840;46.894;15.542;2023-12-04T01:16:48;-5.20;99.90
11569;DHT22;5840;46.894;15.542;2023-12-04T01:19:15;-5.30;99.90
11569;DHT22;5840;46.894;15.542;2023-12-04T01:21:42;-5.30;99.90
11569;DHT22;5840;46.894;15.542;2023-12-04T01:24:09;-5.30;99.90
11569;DHT22;5840;46.894;15.542;2023-12-04T01:26:36;-5.30;99.90
11569;DHT22;5840;46.894;15.542;2023-12-04T01:29:03;-5.30;99.90
11569;DHT22;5840;46.894;15.542;2023-12-04T01:31:32;-5.40;99.90
11569;DHT22;5840;46.894;15.542;2023-12-04T01:33:59;-5.40;99.90
11569;DHT22;5840;46.894;15.542;2023-12-04T01:36:26;-5.40;99.90
11569;DHT22;5840;46.894;15.542;2023-12-04T01:38:53;-5.40;99.90
11569;DHT22;5840;46.894;15.542;2023-12-04T01:41:20;-5.50;99.90
11569;DHT22;5840;46.894;15.542;2023-12-04T01:43:47;-5.50;99.90
11569;DHT22;5840;46.894;15.542;2023-12-04T01:46:16;-5.50;99.90
11569;DHT22;5840;46.894;15.542;2023-12-04T01:48:45;-5.50;99.90
11569;DHT22;5840;46.894;15.542;2023-12-04T01:51:14;-5.50;99.90
11569;DHT22;5840;46.894;15.542;2023-12-04T01:53:42;-5.50;99.90
11569;DHT22;5840;46.894;15.542;2023-12-04T01:56:10;-5.50;99.90
11569;DHT22;5840;46.894;15.542;2023-12-04T01:58:37;-5.50;99.90
11569;DHT22;5840;46.894;15.542;2023-12-04T02:01:05;-5.60;99.90
11569;DHT22;5840;46.894;15.542;2023-12-04T02:03:32;-5.60;99.90
11569;DHT22;5840;46.894;15.542;2023-12-04T02:06:02;-5.60;99.90
11569;DHT22;5840;46.894;15.542;2023-12-04T02:08:29;-5.60;99.90
11569;DHT22;5840;46.894;15.542;2023-12-04T02:10:56;-5.70;99.90
11569;DHT22;5840;46.894;15.542;2023-12-04T02:13:23;-5.70;99.90
11569;DHT22;5840;46.894;15.542;2023-12-04T02:15:53;-5.70;99.90
11569;DHT22;5840;46.894;15.542;2023-12-04T02:18:21;-5.70;99.90
11569;DHT22;5840;46.894;15.542;2023-12-04T02:20:48;-5.80;99.90
11569;DHT22;5840;46.894;15.542;2023-12-04T02:23:17;-5.80;99.90
11569;DHT22;5840;46.894;15.542;2023-12-04T02:25:45;-5.80;99.90
11569;DHT22;5840;46.894;15.542;2023-12-04T02:28:14;-5.80;99.90
11569;DHT22;5840;46.894;15.542;2023-12-04T02:30:43;-5.80;99.90
11569;DHT22;5840;46.894;15.542;2023-12-04T02:33:13;-5.70;99.90
11569;DHT22;5840;46.894;15.542;2023-12-04T02:35:42;-5.70;99.90
11569;DHT22;5840;46.894;15.542;2023-12-04T02:38:09;-5.70;99.90
11569;DHT22;5840;46.894;15.542;2023-12-04T02:40:37;-5.70;99.90
11569;DHT22;5840;46.894;15.542;2023-12-04T02:43:05;-5.70;99.90
11569;DHT22;5840;46.894;15.542;2023-12-04T02:45:32;-5.80;99.90
11569;DHT22;5840;46.894;15.542;2023-12-04T02:47:59;-5.80;99.90
11569;DHT22;5840;46.894;15.542;2023-12-04T02:50:26;-5.90;99.90
11569;DHT22;5840;46.894;15.542;2023-12-04T02:52:53;-5.90;99.90
11569;DHT22;5840;46.894;15.542;2023-12-04T02:55:20;-5.90;99.90
11569;DHT22;5840;46.894;15.542;2023-12-04T02:57:46;-5.90;99.90
11569;DHT22;5840;46.894;15.542;2023-12-04T03:00:15;-5.90;99.90
11569;DHT22;5840;46.894;15.542;2023-12-04T03:02:42;-5.90;99.90
11569;DHT22;5840;46.894;15.542;2023-12-04T03:05:09;-5.80;99.90
11569;DHT22;5840;46.894;15.542;2023-12-04T03:07:36;-5.90;99.90
11569;DHT22;5840;46.894;15.542;2023-12-04T03:10:04;-5.90;99.90
11569;DHT22;5840;46.894;15.542;2023-12-04T03:12:31;-6.00;99.90
11569;DHT22;5840;46.894;15.542;2023-12-04T03:14:58;-6.00;99.90
11569;DHT22;5840;46.894;15.542;2023-12-04T03:17:26;-6.00;99.90
11569;DHT22;5840;46.894;15.542;2023-12-04T03:19:53;-6.00;99.90
11569;DHT22;5840;46.894;15.542;2023-12-04T03:22:20;-6.00;99.90
11569;DHT22;5840;46.894;15.542;2023-12-04T03:24:47;-6.10;99.90
11569;DHT22;5840;46.894;15.542;2023-12-04T03:27:14;-6.00;99.90
11569;DHT22;5840;46.894;15.542;2023-12-04T03:29:41;-6.00;99.90
11569;DHT22;5840;46.894;15.542;2023-12-04T03:32:08;-6.00;99.90
11569;DHT22;5840;46.894;15.542;2023-12-04T03:34:35;-6.10;99.90
11569;DHT22;5840;46.894;15.542;2023-12-04T03:37:02;-6.10;99.90
11569;DHT22;5840;46.894;15.542;2023-12-04T03:39:29;-6.10;99.90
11569;DHT22;5840;46.894;15.542;2023-12-04T03:41:56;-6.20;99.90
11569;DHT22;5840;46.894;15.542;2023-12-04T03:44:23;-6.10;99.90
11569;DHT22;5840;46.894;15.542;2023-12-04T03:46:49;-6.20;99.90
11569;DHT22;5840;46.894;15.542;2023-12-04T03:49:17;-6.20;99.90
11569;DHT22;5840;46.894;15.542;2023-12-04T03:51:45;-6.20;99.90
11569;DHT22;5840;46.894;15.542;2023-12-04T03:54:12;-6.20;99.90
11569;DHT22;5840;46.894;15.542;2023-12-04T03:56:39;-6.20;99.90
11569;DHT22;5840;46.894;15.542;2023-12-04T03:59:08;-6.30;99.90
11569;DHT22;5840;46.894;15.542;2023-12-04T04:01:35;-6.30;99.90
11569;DHT22;5840;46.894;15.542;2023-12-04T04:04:02;-6.30;99.90
11569;DHT22;5840;46.894;15.542;2023-12-04T04:06:29;-6.30;99.90
11569;DHT22;5840;46.894;15.542;2023-12-04T04:08:58;-6.30;99.90
11569;DHT22;5840;46.894;15.542;2023-12-04T04:11:25;-6.30;99.90
11569;DHT22;5840;46.894;15.542;2023-12-04T04:13:51;-6.30;99.90
11569;DHT22;5840;46.894;15.542;2023-12-04T04:16:18;-6.30;99.90
11569;DHT22;5840;46.894;15.542;2023-12-04T04:18:45;-6.30;99.90
11569;DHT22;5840;46.894;15.542;2023-12-04T04:21:12;-6.30;99.90
11569;DHT22;5840;46.894;15.542;2023-12-04T04:23:39;-6.30;99.90
11569;DHT22;5840;46.894;15.542;2023-12-04T04:26:07;-6.30;99.90
11569;DHT22;5840;46.894;15.542;2023-12-04T04:28:34;-6.30;99.90
11569;DHT22;5840;46.894;15.542;2023-12-04T04:31:01;-6.40;99.90
11569;DHT22;5840;46.894;15.542;2023-12-04T04:33:28;-6.40;99.90
11569;DHT22;5840;46.894;15.542;2023-12-04T04:35:55;-6.40;99.90
11569;DHT22;5840;46.894;15.542;2023-12-04T04:38:22;-6.50;99.90
11569;DHT22;5840;46.894;15.542;2023-12-04T04:40:49;-6.50;99.90
11569;DHT22;5840;46.894;15.542;2023-12-04T04:43:19;-6.50;99.90
11569;DHT22;5840;46.894;15.542;2023-12-04T04:45:46;-6.50;99.90
11569;DHT22;5840;46.894;15.542;2023-12-04T04:48:13;-6.50;99.90
11569;DHT22;5840;46.894;15.542;2023-12-04T04:50:40;-6.50;99.90
11569;DHT22;5840;46.894;15.542;2023-12-04T04:53:07;-6.60;99.90
11569;DHT22;5840;46.894;15.542;2023-12-04T04:55:34;-6.60;99.90
11569;DHT22;5840;46.894;15.542;2023-12-04T04:58:01;-6.60;99.90
11569;DHT22;5840;46.894;15.542;2023-12-04T05:00:29;-6.60;99.90
11569;DHT22;5840;46.894;15.542;2023-12-04T05:02:56;-6.60;99.90
11569;DHT22;5840;46.894;15.542;2023-12-04T05:05:23;-6.60;99.90
11569;DHT22;5840;46.894;15.542;2023-12-04T05:07:50;-6.60;99.90
11569;DHT22;5840;46.894;15.542;2023-12-04T05:10:16;-6.60;99.90
11569;DHT22;5840;46.894;15.542;2023-12-04T05:12:44;-6.60;99.90
11569;DHT22;5840;46.894;15.542;2023-12-04T05:15:11;-6.60;99.90
11569;DHT22;5840;46.894;15.542;2023-12-04T05:17:40;-6.60;99.90
11569;DHT22;5840;46.894;15.542;2023-12-04T05:20:08;-6.60;99.90
11569;DHT22;5840;46.894;15.542;2023-12-04T05:22:35;-6.60;99.90
11569;DHT22;5840;46.894;15.542;2023-12-04T05:25:02;-6.60;99.90
11569;DHT22;5840;46.894;15.542;2023-12-04T05:27:29;-6.60;99.90
11569;DHT22;5840;46.894;15.542;2023-12-04T05:29:56;-6.60;99.90
11569;DHT22;5840;46.894;15.542;2023-12-04T05:32:23;-6.60;99.90
11569;DHT22;5840;46.894;15.542;2023-12-04T05:34:51;-6.60;99.90
11569;DHT22;5840;46.894;15.542;2023-12-04T05:37:18;-6.60;99.90
11569;DHT22;5840;46.894;15.542;2023-12-04T05:39:45;-6.60;99.90
11569;DHT22;5840;46.894;15.542;2023-12-04T05:42:12;-6.60;99.90
11569;DHT22;5840;46.894;15.542;2023-12-04T05:44:39;-6.70;99.90
11569;DHT22;5840;46.894;15.542;2023-12-04T05:47:06;-6.70;99.90
11569;DHT22;5840;46.894;15.542;2023-12-04T05:49:34;-6.70;99.90
11569;DHT22;5840;46.894;15.542;2023-12-04T05:52:02;-6.70;99.90
11569;DHT22;5840;46.894;15.542;2023-12-04T05:54:29;-6.70;99.90
11569;DHT22;5840;46.894;15.542;2023-12-04T05:56:56;-6.70;99.90
11569;DHT22;5840;46.894;15.542;2023-12-04T05:59:23;-6.70;99.90
11569;DHT22;5840;46.894;15.542;2023-12-04T06:01:51;-6.70;99.90
11569;DHT22;5840;46.894;15.542;2023-12-04T06:04:17;-6.70;99.90
11569;DHT22;5840;46.894;15.542;2023-12-04T06:06:44;-6.70;99.90
11569;DHT22;5840;46.894;15.542;2023-12-04T06:09:13;-6.80;99.90
11569;DHT22;5840;46.894;15.542;2023-12-04T06:11:41;-6.80;99.90
11569;DHT22;5840;46.894;15.542;2023-12-04T06:14:07;-6.80;99.90
11569;DHT22;5840;46.894;15.542;2023-12-04T06:16:34;-6.80;99.90
11569;DHT22;5840;46.894;15.542;2023-12-04T06:19:02;-6.80;99.90
11569;DHT22;5840;46.894;15.542;2023-12-04T06:21:29;-6.90;99.90
11569;DHT22;5840;46.894;15.542;2023-12-04T06:23:57;-6.90;99.90
11569;DHT22;5840;46.894;15.542;2023-12-04T06:26:26;-6.90;99.90
11569;DHT22;5840;46.894;15.542;2023-12-04T06:28:53;-6.90;99.90
11569;DHT22;5840;46.894;15.542;2023-12-04T06:31:21;-6.90;99.90
11569;DHT22;5840;46.894;15.542;2023-12-04T06:33:48;-6.90;99.90
11569;DHT22;5840;46.894;15.542;2023-12-04T06:36:17;-6.90;99.90
11569;DHT22;5840;46.894;15.542;2023-12-04T06:38:46;-6.80;99.90
11569;DHT22;5840;46.894;15.542;2023-12-04T06:41:14;-6.80;99.90
11569;DHT22;5840;46.894;15.542;2023-12-04T06:43:43;-6.70;99.90
11569;DHT22;5840;46.894;15.542;2023-12-04T06:46:11;-6.70;99.90
11569;DHT22;5840;46.894;15.542;2023-12-04T06:48:43;-6.60;99.90
11569;DHT22;5840;46.894;15.542;2023-12-04T06:51:10;-6.60;99.90
11569;DHT22;5840;46.894;15.542;2023-12-04T06:53:37;-6.40;99.90
11569;DHT22;5840;46.894;15.542;2023-12-04T06:56:05;-6.30;99.90
11569;DHT22;5840;46.894;15.542;2023-12-04T06:58:32;-6.10;99.90
11569;DHT22;5840;46.894;15.542;2023-12-04T07:01:00;-5.90;99.90
11569;DHT22;5840;46.894;15.542;2023-12-04T07:03:27;-5.80;99.90
11569;DHT22;5840;46.894;15.542;2023-12-04T07:05:54;-5.60;99.90
11569;DHT22;5840;46.894;15.542;2023-12-04T07:08:21;-5.40;99.90
11569;DHT22;5840;46.894;15.542;2023-12-04T07:10:48;-5.10;99.90
11569;DHT22;5840;46.894;15.542;2023-12-04T07:13:15;-4.90;99.90
11569;DHT22;5840;46.894;15.542;2023-12-04T07:15:42;-4.80;99.90
11569;DHT22;5840;46.894;15.542;2023-12-04T07:18:11;-4.60;99.90
11569;DHT22;5840;46.894;15.542;2023-12-04T07:20:38;-4.50;99.90
11569;DHT22;5840;46.894;15.542;2023-12-04T07:23:04;-4.40;99.90
11569;DHT22;5840;46.894;15.542;2023-12-04T07:25:31;-4.20;99.90
11569;DHT22;5840;46.894;15.542;2023-12-04T07:27:58;-4.00;99.90
11569;DHT22;5840;46.894;15.542;2023-12-04T07:30:25;-3.90;99.90
11569;DHT22;5840;46.894;15.542;2023-12-04T07:32:52;-3.70;99.90
11569;DHT22;5840;46.894;15.542;2023-12-04T07:35:22;-3.50;99.90
11569;DHT22;5840;46.894;15.542;2023-12-04T07:37:48;-3.30;99.90
11569;DHT22;5840;46.894;15.542;2023-12-04T07:40:15;-3.10;99.90
11569;DHT22;5840;46.894;15.542;2023-12-04T07:42:42;-2.90;99.90
11569;DHT22;5840;46.894;15.542;2023-12-04T07:45:10;-2.70;99.90
11569;DHT22;5840;46.894;15.542;2023-12-04T07:47:37;-2.40;99.90
11569;DHT22;5840;46.894;15.542;2023-12-04T07:50:05;-2.10;99.90
11569;DHT22;5840;46.894;15.542;2023-12-04T07:52:33;-1.80;99.90
11569;DHT22;5840;46.894;15.542;2023-12-04T07:55:00;-1.60;99.90
11569;DHT22;5840;46.894;15.542;2023-12-04T07:57:29;-1.30;99.90
11569;DHT22;5840;46.894;15.542;2023-12-04T07:59:56;-1.10;99.90
11569;DHT22;5840;46.894;15.542;2023-12-04T08:02:23;-1.00;99.90
11569;DHT22;5840;46.894;15.542;2023-12-04T08:04:51;-0.70;99.90
11569;DHT22;5840;46.894;15.542;2023-12-04T08:07:19;-0.50;99.90
11569;DHT22;5840;46.894;15.542;2023-12-04T08:09:47;-0.20;99.90
11569;DHT22;5840;46.894;15.542;2023-12-04T08:12:14;0.10;99.90
11569;DHT22;5840;46.894;15.542;2023-12-04T08:14:41;0.40;99.90
11569;DHT22;5840;46.894;15.542;2023-12-04T08:17:07;0.60;99.90
11569;DHT22;5840;46.894;15.542;2023-12-04T08:19:34;0.80;99.90
11569;DHT22;5840;46.894;15.542;2023-12-04T08:22:03;1.20;99.90
11569;DHT22;5840;46.894;15.542;2023-12-04T08:24:30;1.50;99.90
11569;DHT22;5840;46.894;15.542;2023-12-04T08:26:58;1.40;99.90
11569;DHT22;5840;46.894;15.542;2023-12-04T08:29:26;1.50;99.90
11569;DHT22;5840;46.894;15.542;2023-12-04T08:31:53;1.50;99.90
11569;DHT22;5840;46.894;15.542;2023-12-04T08:34:20;1.30;99.90
11569;DHT22;5840;46.894;15.542;2023-12-04T08:36:46;1.40;99.90
11569;DHT22;5840;46.894;15.542;2023-12-04T08:39:13;1.50;99.90
11569;DHT22;5840;46.894;15.542;2023-12-04T08:41:40;1.50;99.90
11569;DHT22;5840;46.894;15.542;2023-12-04T08:44:09;1.60;99.90
11569;DHT22;5840;46.894;15.542;2023-12-04T08:46:37;1.60;99.90
11569;DHT22;5840;46.894;15.542;2023-12-04T08:49:04;1.50;99.90
11569;DHT22;5840;46.894;15.542;2023-12-04T08:51:31;1.60;99.90
11569;DHT22;5840;46.894;15.542;2023-12-04T08:53:58;1.70;99.90
11569;DHT22;5840;46.894;15.542;2023-12-04T08:56:25;1.80;99.90
11569;DHT22;5840;46.894;15.542;2023-12-04T08:58:51;1.80;99.90
11569;DHT22;5840;46.894;15.542;2023-12-04T09:01:20;1.70;99.90
11569;DHT22;5840;46.894;15.542;2023-12-04T09:03:47;1.80;99.90
11569;DHT22;5840;46.894;15.542;2023-12-04T09:06:13;2.10;99.90
11569;DHT22;5840;46.894;15.542;2023-12-04T09:08:41;2.30;99.90
11569;DHT22;5840;46.894;15.542;2023-12-04T09:11:08;2.50;99.90
11569;DHT22;5840;46.894;15.542;2023-12-04T09:13:35;2.40;99.90
11569;DHT22;5840;46.894;15.542;2023-12-04T09:16:03;2.40;99.90
11569;DHT22;5840;46.894;15.542;2023-12-04T09:18:31;2.40;99.90
11569;DHT22;5840;46.894;15.542;2023-12-04T09:20:58;2.40;99.90
11569;DHT22;5840;46.894;15.542;2023-12-04T09:23:25;2.50;99.90
11569;DHT22;5840;46.894;15.542;2023-12-04T09:25:52;2.70;99.90
11569;DHT22;5840;46.894;15.542;2023-12-04T09:28:19;2.80;99.90
11569;DHT22;5840;46.894;15.542;2023-12-04T09:30:46;3.00;99.90
11569;DHT22;5840;46.894;15.542;2023-12-04T09:33:13;3.20;99.90
11569;DHT22;5840;46.894;15.542;2023-12-04T09:35:42;3.40;99.90
11569;DHT22;5840;46.894;15.542;2023-12-04T09:38:09;3.50;99.90
11569;DHT22;5840;46.894;15.542;2023-12-04T09:40:36;3.60;99.90
11569;DHT22;5840;46.894;15.542;2023-12-04T09:43:05;3.70;99.90
11569;DHT22;5840;46.894;15.542;2023-12-04T09:45:33;3.90;99.90
11569;DHT22;5840;46.894;15.542;2023-12-04T09:48:00;4.00;99.90
11569;DHT22;5840;46.894;15.542;2023-12-04T09:50:27;4.00;99.30
11569;DHT22;5840;46.894;15.542;2023-12-04T09:52:56;3.90;98.80
11569;DHT22;5840;46.894;15.542;2023-12-04T09:55:26;4.00;99.90
11569;DHT22;5840;46.894;15.542;2023-12-04T09:57:55;4.10;99.10
11569;DHT22;5840;46.894;15.542;2023-12-04T10:00:24;4.30;99.50
11569;DHT22;5840;46.894;15.542;2023-12-04T10:02:51;4.20;99.10
11569;DHT22;5840;46.894;15.542;2023-12-04T10:05:18;4.10;99.60
11569;DHT22;5840;46.894;15.542;2023-12-04T10:07:47;4.00;99.00
11569;DHT22;5840;46.894;15.542;2023-12-04T10:10:15;3.90;98.90
11569;DHT22;5840;46.894;15.542;2023-12-04T10:12:43;3.80;99.90
11569;DHT22;5840;46.894;15.542;2023-12-04T10:15:12;3.90;99.90
11569;DHT22;5840;46.894;15.542;2023-12-04T10:17:40;3.90;99.90
11569;DHT22;5840;46.894;15.542;2023-12-04T10:20:10;3.80;99.40
11569;DHT22;5840;46.894;15.542;2023-12-04T10:22:39;3.70;99.50
11569;DHT22;5840;46.894;15.542;2023-12-04T10:25:17;3.70;99.90
11569;DHT22;5840;46.894;15.542;2023-12-04T10:27:44;3.60;98.80
11569;DHT22;5840;46.894;15.542;2023-12-04T10:30:22;3.60;99.90
11569;DHT22;5840;46.894;15.542;2023-12-04T10:32:53;3.40;99.90
11569;DHT22;5840;46.894;15.542;2023-12-04T10:35:20;3.50;99.80
11569;DHT22;5840;46.894;15.542;2023-12-04T10:37:48;3.50;99.30
11569;DHT22;5840;46.894;15.542;2023-12-04T10:40:24;3.40;99.90
11569;DHT22;5840;46.894;15.542;2023-12-04T10:42:57;3.20;99.60
11569;DHT22;5840;46.894;15.542;2023-12-04T10:45:37;3.00;99.60
11569;DHT22;5840;46.894;15.542;2023-12-04T10:48:04;2.90;99.90
11569;DHT22;5840;46.894;15.542;2023-12-04T10:50:33;2.80;99.90
11569;DHT22;5840;46.894;15.542;2023-12-04T10:53:01;2.80;99.90
11569;DHT22;5840;46.894;15.542;2023-12-04T10:55:31;2.90;99.90
11569;DHT22;5840;46.894;15.542;2023-12-04T10:57:59;2.90;99.90
11569;DHT22;5840;46.894;15.542;2023-12-04T11:00:30;3.00;99.90
11569;DHT22;5840;46.894;15.542;2023-12-04T11:03:03;3.00;99.90
11569;DHT22;5840;46.894;15.542;2023-12-04T11:05:32;2.90;99.90
11569;DHT22;5840;46.894;15.542;2023-12-04T11:08:02;2.90;99.90
11569;DHT22;5840;46.894;15.542;2023-12-04T11:10:33;2.80;99.90
11569;DHT22;5840;46.894;15.542;2023-12-04T11:13:06;2.90;99.90
11569;DHT22;5840;46.894;15.542;2023-12-04T11:15:38;2.80;99.90
11569;DHT22;5840;46.894;15.542;2023-12-04T11:18:07;2.60;99.90
11569;DHT22;5840;46.894;15.542;2023-12-04T11:20:41;2.20;99.90
11569;DHT22;5840;46.894;15.542;2023-12-04T11:23:09;2.10;99.90
11569;DHT22;5840;46.894;15.542;2023-12-04T11:25:38;1.80;99.90
11569;DHT22;5840;46.894;15.542;2023-12-04T11:28:06;1.70;99.90
11569;DHT22;5840;46.894;15.542;2023-12-04T11:30:33;1.70;99.90
11569;DHT22;5840;46.894;15.542;2023-12-04T11:33:00;1.70;99.90
11569;DHT22;5840;46.894;15.542;2023-12-04T11:35:28;1.50;99.90
11569;DHT22;5840;46.894;15.542;2023-12-04T11:37:56;1.50;99.90
11569;DHT22;5840;46.894;15.542;2023-12-04T11:40:23;1.50;99.90
11569;DHT22;5840;46.894;15.542;2023-12-04T11:42:53;1.40;99.90
11569;DHT22;5840;46.894;15.542;2023-12-04T11:45:20;1.30;99.90
11569;DHT22;5840;46.894;15.542;2023-12-04T11:47:52;1.40;99.90
11569;DHT22;5840;46.894;15.542;2023-12-04T11:50:19;1.40;99.90
11569;DHT22;5840;46.894;15.542;2023-12-04T11:52:47;1.30;99.90
11569;DHT22;5840;46.894;15.542;2023-12-04T11:55:16;1.20;99.90
11569;DHT22;5840;46.894;15.542;2023-12-04T11:57:44;1.10;99.90
11569;DHT22;5840;46.894;15.542;2023-12-04T12:00:20;1.10;99.90
11569;DHT22;5840;46.894;15.542;2023-12-04T12:03:00;1.00;99.90
11569;DHT22;5840;46.894;15.542;2023-12-04T12:05:30;1.00;99.90
11569;DHT22;5840;46.894;15.542;2023-12-04T12:08:01;1.00;99.90
11569;DHT22;5840;46.894;15.542;2023-12-04T12:10:28;0.90;99.90
11569;DHT22;5840;46.894;15.542;2023-12-04T12:12:55;0.90;99.90
11569;DHT22;5840;46.894;15.542;2023-12-04T12:15:24;0.90;99.90
11569;DHT22;5840;46.894;15.542;2023-12-04T12:17:51;0.90;99.90
11569;DHT22;5840;46.894;15.542;2023-12-04T12:20:18;0.90;99.90
11569;DHT22;5840;46.894;15.542;2023-12-04T12:22:48;0.90;99.90
11569;DHT22;5840;46.894;15.542;2023-12-04T12:25:15;0.90;99.90
11569;DHT22;5840;46.894;15.542;2023-12-04T12:27:43;0.90;99.90
11569;DHT22;5840;46.894;15.542;2023-12-04T12:30:12;0.90;99.90
11569;DHT22;5840;46.894;15.542;2023-12-04T12:32:40;0.90;99.90
11569;DHT22;5840;46.894;15.542;2023-12-04T12:35:07;0.90;99.90
11569;DHT22;5840;46.894;15.542;2023-12-04T12:37:35;1.00;99.90
11569;DHT22;5840;46.894;15.542;2023-12-04T12:40:04;1.10;99.90
11569;DHT22;5840;46.894;15.542;2023-12-04T12:42:31;1.00;99.90
11569;DHT22;5840;46.894;15.542;2023-12-04T12:45:01;1.00;99.90
11569;DHT22;5840;46.894;15.542;2023-12-04T12:47:29;0.90;99.90
11569;DHT22;5840;46.894;15.542;2023-12-04T12:49:57;0.90;99.90
11569;DHT22;5840;46.894;15.542;2023-12-04T12:52:26;0.80;99.90
11569;DHT22;5840;46.894;15.542;2023-12-04T12:54:53;0.70;99.90
11569;DHT22;5840;46.894;15.542;2023-12-04T12:57:20;0.60;99.90
11569;DHT22;5840;46.894;15.542;2023-12-04T12:59:47;0.50;99.90
11569;DHT22;5840;46.894;15.542;2023-12-04T13:02:14;0.40;99.90
11569;DHT22;5840;46.894;15.542;2023-12-04T13:04:42;0.40;99.90
11569;DHT22;5840;46.894;15.542;2023-12-04T13:07:11;0.40;99.90
11569;DHT22;5840;46.894;15.542;2023-12-04T13:09:39;0.40;99.90
11569;DHT22;5840;46.894;15.542;2023-12-04T13:12:06;0.50;99.90
11569;DHT22;5840;46.894;15.542;2023-12-04T13:14:35;0.50;99.90
11569;DHT22;5840;46.894;15.542;2023-12-04T13:17:02;0.50;99.90
11569;DHT22;5840;46.894;15.542;2023-12-04T13:19:29;0.50;99.90
11569;DHT22;5840;46.894;15.542;2023-12-04T13:22:00;0.60;99.90
11569;DHT22;5840;46.894;15.542;2023-12-04T13:24:28;0.60;99.90
11569;DHT22;5840;46.894;15.542;2023-12-04T13:26:55;0.70;99.90
11569;DHT22;5840;46.894;15.542;2023-12-04T13:29:23;0.80;99.90
11569;DHT22;5840;46.894;15.542;2023-12-04T13:31:50;0.80;99.90
11569;DHT22;5840;46.894;15.542;2023-12-04T13:34:17;0.80;99.90
11569;DHT22;5840;46.894;15.542;2023-12-04T13:36:44;0.70;99.90
11569;DHT22;5840;46.894;15.542;2023-12-04T13:39:11;0.70;99.90
11569;DHT22;5840;46.894;15.542;2023-12-04T13:41:46;0.60;99.90
11569;DHT22;5840;46.894;15.542;2023-12-04T13:44:31;0.60;99.90
11569;DHT22;5840;46.894;15.542;2023-12-04T13:46:59;0.50;99.90
11569;DHT22;5840;46.894;15.542;2023-12-04T13:49:26;0.40;99.90
11569;DHT22;5840;46.894;15.542;2023-12-04T13:51:52;0.40;99.90
11569;DHT22;5840;46.894;15.542;2023-12-04T13:54:20;0.30;99.90
11569;DHT22;5840;46.894;15.542;2023-12-04T13:56:54;0.30;99.90
11569;DHT22;5840;46.894;15.542;2023-12-04T13:59:22;0.30;99.90
11569;DHT22;5840;46.894;15.542;2023-12-04T14:01:50;0.30;99.90
11569;DHT22;5840;46.894;15.542;2023-12-04T14:04:20;0.40;99.90
11569;DHT22;5840;46.894;15.542;2023-12-04T14:06:49;0.40;99.90
11569;DHT22;5840;46.894;15.542;2023-12-04T14:09:16;0.40;99.90
11569;DHT22;5840;46.894;15.542;2023-12-04T14:11:43;0.30;99.90
11569;DHT22;5840;46.894;15.542;2023-12-04T14:14:12;0.30;99.90
11569;DHT22;5840;46.894;15.542;2023-12-04T14:16:39;0.30;99.90
11569;DHT22;5840;46.894;15.542;2023-12-04T14:19:07;0.20;99.90
11569;DHT22;5840;46.894;15.542;2023-12-04T14:21:34;0.20;99.90
11569;DHT22;5840;46.894;15.542;2023-12-04T14:24:01;0.10;99.90
11569;DHT22;5840;46.894;15.542;2023-12-04T14:26:28;0.10;99.90
11569;DHT22;5840;46.894;15.542;2023-12-04T14:28:55;0.00;99.90
11569;DHT22;5840;46.894;15.542;2023-12-04T14:31:24;0.00;99.90
11569;DHT22;5840;46.894;15.542;2023-12-04T14:33:52;0.00;99.90
11569;DHT22;5840;46.894;15.542;2023-12-04T14:36:19;0.00;99.90
11569;DHT22;5840;46.894;15.542;2023-12-04T14:38:46;0.00;99.90
11569;DHT22;5840;46.894;15.542;2023-12-04T14:41:13;-0.10;99.90
11569;DHT22;5840;46.894;15.542;2023-12-04T14:43:40;-0.10;99.90
11569;DHT22;5840;46.894;15.542;2023-12-04T14:46:08;-0.10;99.90
11569;DHT22;5840;46.894;15.542;2023-12-04T14:48:38;-0.10;99.90
11569;DHT22;5840;46.894;15.542;2023-12-04T14:51:07;-0.20;99.90
11569;DHT22;5840;46.894;15.542;2023-12-04T14:53:35;-0.20;99.90
11569;DHT22;5840;46.894;15.542;2023-12-04T14:56:11;-0.30;99.90
11569;DHT22;5840;46.894;15.542;2023-12-04T14:58:55;-0.30;99.90
11569;DHT22;5840;46.894;15.542;2023-12-04T15:01:45;-0.40;99.90
11569;DHT22;5840;46.894;15.542;2023-12-04T15:04:28;-0.40;99.90
11569;DHT22;5840;46.894;15.542;2023-12-04T15:07:41;-0.40;99.90
11569;DHT22;5840;46.894;15.542;2023-12-04T15:10:28;-0.40;99.90
11569;DHT22;5840;46.894;15.542;2023-12-04T15:13:29;-0.50;99.90
11569;DHT22;5840;46.894;15.542;2023-12-04T15:16:09;-0.50;99.90
11569;DHT22;5840;46.894;15.542;2023-12-04T15:18:51;-0.50;99.90
11569;DHT22;5840;46.894;15.542;2023-12-04T15:21:55;-0.50;99.90
11569;DHT22;5840;46.894;15.542;2023-12-04T15:24:22;-0.50;99.90
11569;DHT22;5840;46.894;15.542;2023-12-04T15:26:47;-0.50;99.90
11569;DHT22;5840;46.894;15.542;2023-12-04T15:29:14;-0.50;99.90
11569;DHT22;5840;46.894;15.542;2023-12-04T15:31:44;-0.50;99.90
11569;DHT22;5840;46.894;15.542;2023-12-04T15:34:09;-0.50;99.90
11569;DHT22;5840;46.894;15.542;2023-12-04T15:36:36;-0.50;99.90
11569;DHT22;5840;46.894;15.542;2023-12-04T15:39:05;-0.50;99.90
11569;DHT22;5840;46.894;15.542;2023-12-04T15:41:31;-0.50;99.90
11569;DHT22;5840;46.894;15.542;2023-12-04T15:43:57;-0.60;99.90